sensor_id;sensor_type;location;lat;lon;timestamp;P1;durP1;ratioP1;P2;durP2;ratioP2
7253;SDS011;4060;49.186;9.226;2023-02-18T00:01:54;2.40;;;2.20;;
7253;SDS011;4060;49.186;9.226;2023-02-18T00:04:23;2.30;;;2.10;;
7253;SDS011;4060;49.186;9.226;2023-02-18T00:06:52;2.30;;;2.10;;
7253;SDS011;4060;49.186;9.226;2023-02-18T00:09:22;2.25;;;2.03;;
7253;SDS011;4060;49.186;9.226;2023-02-18T00:11:51;2.17;;;2.08;;
7253;SDS011;4060;49.186;9.226;2023-02-18T00:14:21;2.03;;;1.92;;
7253;SDS011;4060;49.186;9.226;2023-02-18T00:16:51;2.40;;;2.20;;
7253;SDS011;4060;49.186;9.226;2023-02-18T00:19:22;2.20;;;2.00;;
7253;SDS011;4060;49.186;9.226;2023-02-18T00:21:52;2.40;;;2.20;;
7253;SDS011;4060;49.186;9.226;2023-02-18T00:24:22;2.28;;;2.08;;
7253;SDS011;4060;49.186;9.226;2023-02-18T00:26:51;2.65;;;2.30;;
7253;SDS011;4060;49.186;9.226;2023-02-18T00:29:20;2.47;;;2.28;;
7253;SDS011;4060;49.186;9.226;2023-02-18T00:31:48;2.40;;;2.20;;
7253;SDS011;4060;49.186;9.226;2023-02-18T00:34:19;2.92;;;2.70;;
7253;SDS011;4060;49.186;9.226;2023-02-18T00:36:48;2.83;;;2.63;;
7253;SDS011;4060;49.186;9.226;2023-02-18T00:39:18;2.60;;;2.40;;
7253;SDS011;4060;49.186;9.226;2023-02-18T00:41:47;3.40;;;2.70;;
7253;SDS011;4060;49.186;9.226;2023-02-18T00:44:22;2.78;;;2.58;;
7253;SDS011;4060;49.186;9.226;2023-02-18T00:46:51;2.65;;;2.45;;
7253;SDS011;4060;49.186;9.226;2023-02-18T00:49:22;2.72;;;2.53;;
7253;SDS011;4060;49.186;9.226;2023-02-18T00:51:51;2.53;;;2.28;;
7253;SDS011;4060;49.186;9.226;2023-02-18T00:54:21;2.85;;;2.60;;
7253;SDS011;4060;49.186;9.226;2023-02-18T00:56:50;3.75;;;2.60;;
7253;SDS011;4060;49.186;9.226;2023-02-18T00:59:19;2.78;;;2.58;;
7253;SDS011;4060;49.186;9.226;2023-02-18T01:01:49;2.53;;;2.33;;
7253;SDS011;4060;49.186;9.226;2023-02-18T01:04:18;2.83;;;2.60;;
7253;SDS011;4060;49.186;9.226;2023-02-18T01:06:50;3.35;;;2.67;;
7253;SDS011;4060;49.186;9.226;2023-02-18T01:09:19;2.63;;;2.42;;
7253;SDS011;4060;49.186;9.226;2023-02-18T01:11:50;2.88;;;2.60;;
7253;SDS011;4060;49.186;9.226;2023-02-18T01:14:20;2.50;;;2.30;;
7253;SDS011;4060;49.186;9.226;2023-02-18T01:16:50;2.88;;;2.25;;
7253;SDS011;4060;49.186;9.226;2023-02-18T01:19:19;2.85;;;2.65;;
7253;SDS011;4060;49.186;9.226;2023-02-18T01:21:51;2.53;;;2.33;;
7253;SDS011;4060;49.186;9.226;2023-02-18T01:24:20;2.83;;;2.40;;
7253;SDS011;4060;49.186;9.226;2023-02-18T01:26:49;2.72;;;2.53;;
7253;SDS011;4060;49.186;9.226;2023-02-18T01:29:19;2.75;;;2.42;;
7253;SDS011;4060;49.186;9.226;2023-02-18T01:31:49;2.50;;;2.30;;
7253;SDS011;4060;49.186;9.226;2023-02-18T01:34:18;2.60;;;2.40;;
7253;SDS011;4060;49.186;9.226;2023-02-18T01:36:48;2.70;;;2.50;;
7253;SDS011;4060;49.186;9.226;2023-02-18T01:39:19;3.40;;;2.65;;
7253;SDS011;4060;49.186;9.226;2023-02-18T01:41:48;3.17;;;2.88;;
7253;SDS011;4060;49.186;9.226;2023-02-18T01:44:22;2.95;;;2.75;;
7253;SDS011;4060;49.186;9.226;2023-02-18T01:46:52;2.80;;;2.60;;
7253;SDS011;4060;49.186;9.226;2023-02-18T01:49:22;3.05;;;2.85;;
7253;SDS011;4060;49.186;9.226;2023-02-18T01:51:57;2.60;;;2.40;;
7253;SDS011;4060;49.186;9.226;2023-02-18T01:54:30;2.53;;;2.33;;
7253;SDS011;4060;49.186;9.226;2023-02-18T01:57:02;3.05;;;2.85;;
7253;SDS011;4060;49.186;9.226;2023-02-18T01:59:36;2.92;;;2.72;;
7253;SDS011;4060;49.186;9.226;2023-02-18T02:02:07;2.92;;;2.72;;
7253;SDS011;4060;49.186;9.226;2023-02-18T02:04:41;2.75;;;2.55;;
7253;SDS011;4060;49.186;9.226;2023-02-18T02:07:13;2.63;;;2.42;;
7253;SDS011;4060;49.186;9.226;2023-02-18T02:09:44;3.10;;;2.90;;
7253;SDS011;4060;49.186;9.226;2023-02-18T02:12:30;2.92;;;2.63;;
7253;SDS011;4060;49.186;9.226;2023-02-18T02:15:15;2.85;;;2.65;;
7253;SDS011;4060;49.186;9.226;2023-02-18T02:18:04;2.50;;;2.30;;
7253;SDS011;4060;49.186;9.226;2023-02-18T02:24:11;3.05;;;2.75;;
7253;SDS011;4060;49.186;9.226;2023-02-18T02:27:15;2.70;;;2.50;;
7253;SDS011;4060;49.186;9.226;2023-02-18T02:30:03;2.47;;;2.28;;
7253;SDS011;4060;49.186;9.226;2023-02-18T02:33:13;2.83;;;2.58;;
7253;SDS011;4060;49.186;9.226;2023-02-18T02:36:01;4.40;;;2.70;;
7253;SDS011;4060;49.186;9.226;2023-02-18T02:38:38;3.03;;;2.70;;
7253;SDS011;4060;49.186;9.226;2023-02-18T02:41:18;2.90;;;2.70;;
7253;SDS011;4060;49.186;9.226;2023-02-18T02:44:01;2.85;;;2.50;;
7253;SDS011;4060;49.186;9.226;2023-02-18T02:46:44;3.08;;;2.60;;
7253;SDS011;4060;49.186;9.226;2023-02-18T02:49:18;3.03;;;2.50;;
7253;SDS011;4060;49.186;9.226;2023-02-18T02:52:05;2.80;;;2.60;;
7253;SDS011;4060;49.186;9.226;2023-02-18T02:54:41;3.10;;;2.90;;
7253;SDS011;4060;49.186;9.226;2023-02-18T03:00:11;3.78;;;3.40;;
7253;SDS011;4060;49.186;9.226;2023-02-18T03:02:47;3.30;;;3.00;;
7253;SDS011;4060;49.186;9.226;2023-02-18T03:05:45;3.45;;;3.17;;
7253;SDS011;4060;49.186;9.226;2023-02-18T03:08:33;3.67;;;3.15;;
7253;SDS011;4060;49.186;9.226;2023-02-18T03:11:10;3.45;;;3.08;;
7253;SDS011;4060;49.186;9.226;2023-02-18T03:13:46;3.47;;;3.17;;
7253;SDS011;4060;49.186;9.226;2023-02-18T03:16:25;3.10;;;2.90;;
7253;SDS011;4060;49.186;9.226;2023-02-18T03:19:04;3.75;;;3.45;;
7253;SDS011;4060;49.186;9.226;2023-02-18T03:21:38;3.70;;;3.40;;
7253;SDS011;4060;49.186;9.226;2023-02-18T03:24:14;4.00;;;3.70;;
7253;SDS011;4060;49.186;9.226;2023-02-18T03:26:47;3.33;;;3.13;;
7253;SDS011;4060;49.186;9.226;2023-02-18T03:29:21;3.88;;;3.65;;
7253;SDS011;4060;49.186;9.226;2023-02-18T03:31:52;3.90;;;3.60;;
7253;SDS011;4060;49.186;9.226;2023-02-18T03:34:24;5.07;;;3.92;;
7253;SDS011;4060;49.186;9.226;2023-02-18T03:36:56;4.72;;;3.97;;
7253;SDS011;4060;49.186;9.226;2023-02-18T03:39:35;4.15;;;3.75;;
7253;SDS011;4060;49.186;9.226;2023-02-18T03:42:06;4.18;;;3.83;;
7253;SDS011;4060;49.186;9.226;2023-02-18T03:44:36;4.05;;;3.65;;
7253;SDS011;4060;49.186;9.226;2023-02-18T03:47:05;4.18;;;3.78;;
7253;SDS011;4060;49.186;9.226;2023-02-18T03:49:35;4.00;;;3.60;;
7253;SDS011;4060;49.186;9.226;2023-02-18T03:52:05;3.80;;;3.50;;
7253;SDS011;4060;49.186;9.226;2023-02-18T03:54:36;4.05;;;3.75;;
7253;SDS011;4060;49.186;9.226;2023-02-18T03:57:05;3.92;;;3.63;;
7253;SDS011;4060;49.186;9.226;2023-02-18T03:59:36;3.95;;;3.65;;
7253;SDS011;4060;49.186;9.226;2023-02-18T04:02:05;3.95;;;3.65;;
7253;SDS011;4060;49.186;9.226;2023-02-18T04:04:34;4.30;;;4.00;;
7253;SDS011;4060;49.186;9.226;2023-02-18T04:07:04;4.05;;;3.75;;
7253;SDS011;4060;49.186;9.226;2023-02-18T04:09:36;3.95;;;3.65;;
7253;SDS011;4060;49.186;9.226;2023-02-18T04:12:06;3.97;;;3.65;;
7253;SDS011;4060;49.186;9.226;2023-02-18T04:14:35;4.50;;;3.63;;
7253;SDS011;4060;49.186;9.226;2023-02-18T04:17:05;4.05;;;3.75;;
7253;SDS011;4060;49.186;9.226;2023-02-18T04:19:35;4.25;;;3.95;;
7253;SDS011;4060;49.186;9.226;2023-02-18T04:22:04;4.55;;;4.15;;
7253;SDS011;4060;49.186;9.226;2023-02-18T04:24:36;4.43;;;4.10;;
7253;SDS011;4060;49.186;9.226;2023-02-18T04:27:05;4.10;;;3.80;;
7253;SDS011;4060;49.186;9.226;2023-02-18T04:29:35;4.07;;;3.78;;
7253;SDS011;4060;49.186;9.226;2023-02-18T04:32:04;4.45;;;4.05;;
7253;SDS011;4060;49.186;9.226;2023-02-18T04:34:33;3.92;;;3.63;;
7253;SDS011;4060;49.186;9.226;2023-02-18T04:37:03;4.13;;;3.83;;
7253;SDS011;4060;49.186;9.226;2023-02-18T04:39:36;3.80;;;3.50;;
7253;SDS011;4060;49.186;9.226;2023-02-18T04:42:06;4.22;;;3.90;;
7253;SDS011;4060;49.186;9.226;2023-02-18T04:44:35;4.78;;;4.38;;
7253;SDS011;4060;49.186;9.226;2023-02-18T04:47:05;4.47;;;4.10;;
7253;SDS011;4060;49.186;9.226;2023-02-18T04:49:35;4.55;;;4.25;;
7253;SDS011;4060;49.186;9.226;2023-02-18T04:52:04;4.55;;;4.13;;
7253;SDS011;4060;49.186;9.226;2023-02-18T04:54:34;4.13;;;3.83;;
7253;SDS011;4060;49.186;9.226;2023-02-18T04:57:05;4.28;;;3.97;;
7253;SDS011;4060;49.186;9.226;2023-02-18T04:59:34;5.30;;;4.18;;
7253;SDS011;4060;49.186;9.226;2023-02-18T05:02:04;4.45;;;4.05;;
7253;SDS011;4060;49.186;9.226;2023-02-18T05:04:33;4.70;;;4.30;;
7253;SDS011;4060;49.186;9.226;2023-02-18T05:07:03;4.68;;;4.18;;
7253;SDS011;4060;49.186;9.226;2023-02-18T05:09:32;4.68;;;4.28;;
7253;SDS011;4060;49.186;9.226;2023-02-18T05:12:03;4.88;;;4.47;;
7253;SDS011;4060;49.186;9.226;2023-02-18T05:14:33;5.07;;;4.68;;
7253;SDS011;4060;49.186;9.226;2023-02-18T05:17:03;4.70;;;4.25;;
7253;SDS011;4060;49.186;9.226;2023-02-18T05:19:32;4.20;;;3.90;;
7253;SDS011;4060;49.186;9.226;2023-02-18T05:22:02;4.60;;;4.20;;
7253;SDS011;4060;49.186;9.226;2023-02-18T05:24:33;5.00;;;4.47;;
7253;SDS011;4060;49.186;9.226;2023-02-18T05:27:04;4.75;;;4.35;;
7253;SDS011;4060;49.186;9.226;2023-02-18T05:29:33;4.63;;;4.22;;
7253;SDS011;4060;49.186;9.226;2023-02-18T05:32:02;4.63;;;4.22;;
7253;SDS011;4060;49.186;9.226;2023-02-18T05:34:32;4.68;;;4.15;;
7253;SDS011;4060;49.186;9.226;2023-02-18T05:37:01;4.85;;;4.40;;
7253;SDS011;4060;49.186;9.226;2023-02-18T05:39:31;3.80;;;3.50;;
7253;SDS011;4060;49.186;9.226;2023-02-18T05:42:00;4.65;;;4.25;;
7253;SDS011;4060;49.186;9.226;2023-02-18T05:44:31;5.22;;;4.78;;
7253;SDS011;4060;49.186;9.226;2023-02-18T05:47:03;4.70;;;4.30;;
7253;SDS011;4060;49.186;9.226;2023-02-18T05:49:34;4.90;;;4.40;;
7253;SDS011;4060;49.186;9.226;2023-02-18T05:52:03;3.88;;;3.58;;
7253;SDS011;4060;49.186;9.226;2023-02-18T05:54:33;3.83;;;3.53;;
7253;SDS011;4060;49.186;9.226;2023-02-18T05:57:03;4.47;;;4.07;;
7253;SDS011;4060;49.186;9.226;2023-02-18T05:59:34;3.95;;;3.65;;
7253;SDS011;4060;49.186;9.226;2023-02-18T06:02:03;3.63;;;3.40;;
7253;SDS011;4060;49.186;9.226;2023-02-18T06:04:32;4.00;;;3.70;;
7253;SDS011;4060;49.186;9.226;2023-02-18T06:07:07;4.22;;;3.88;;
7253;SDS011;4060;49.186;9.226;2023-02-18T06:09:36;4.30;;;3.90;;
7253;SDS011;4060;49.186;9.226;2023-02-18T06:12:06;4.30;;;3.90;;
7253;SDS011;4060;49.186;9.226;2023-02-18T06:14:37;3.38;;;3.08;;
7253;SDS011;4060;49.186;9.226;2023-02-18T06:17:07;3.90;;;3.60;;
7253;SDS011;4060;49.186;9.226;2023-02-18T06:19:36;4.30;;;4.00;;
7253;SDS011;4060;49.186;9.226;2023-02-18T06:22:07;3.70;;;3.40;;
7253;SDS011;4060;49.186;9.226;2023-02-18T06:24:36;3.92;;;3.63;;
7253;SDS011;4060;49.186;9.226;2023-02-18T06:27:05;3.90;;;3.50;;
7253;SDS011;4060;49.186;9.226;2023-02-18T06:29:38;3.88;;;3.58;;
7253;SDS011;4060;49.186;9.226;2023-02-18T06:32:07;3.78;;;3.35;;
7253;SDS011;4060;49.186;9.226;2023-02-18T06:34:36;3.70;;;3.40;;
7253;SDS011;4060;49.186;9.226;2023-02-18T06:37:10;4.07;;;3.55;;
7253;SDS011;4060;49.186;9.226;2023-02-18T06:39:39;3.83;;;3.53;;
7253;SDS011;4060;49.186;9.226;2023-02-18T06:42:09;3.40;;;3.10;;
7253;SDS011;4060;49.186;9.226;2023-02-18T06:44:40;2.95;;;2.75;;
7253;SDS011;4060;49.186;9.226;2023-02-18T06:47:10;3.53;;;3.22;;
7253;SDS011;4060;49.186;9.226;2023-02-18T06:49:40;3.50;;;3.22;;
7253;SDS011;4060;49.186;9.226;2023-02-18T06:52:09;3.08;;;2.80;;
7253;SDS011;4060;49.186;9.226;2023-02-18T06:54:39;3.55;;;3.28;;
7253;SDS011;4060;49.186;9.226;2023-02-18T06:57:08;3.53;;;3.22;;
7253;SDS011;4060;49.186;9.226;2023-02-18T06:59:37;3.60;;;3.30;;
7253;SDS011;4060;49.186;9.226;2023-02-18T07:02:09;3.15;;;2.90;;
7253;SDS011;4060;49.186;9.226;2023-02-18T07:04:40;3.70;;;3.40;;
7253;SDS011;4060;49.186;9.226;2023-02-18T07:07:10;3.38;;;3.08;;
7253;SDS011;4060;49.186;9.226;2023-02-18T07:09:40;3.15;;;2.95;;
7253;SDS011;4060;49.186;9.226;2023-02-18T07:12:09;2.95;;;2.75;;
7253;SDS011;4060;49.186;9.226;2023-02-18T07:14:42;3.28;;;2.95;;
7253;SDS011;4060;49.186;9.226;2023-02-18T07:17:11;3.63;;;3.33;;
7253;SDS011;4060;49.186;9.226;2023-02-18T07:19:41;3.35;;;3.05;;
7253;SDS011;4060;49.186;9.226;2023-02-18T07:22:10;3.40;;;3.10;;
7253;SDS011;4060;49.186;9.226;2023-02-18T07:24:39;3.33;;;3.03;;
7253;SDS011;4060;49.186;9.226;2023-02-18T07:27:08;3.70;;;3.40;;
7253;SDS011;4060;49.186;9.226;2023-02-18T07:29:38;3.25;;;2.95;;
7253;SDS011;4060;49.186;9.226;2023-02-18T07:32:09;3.33;;;3.03;;
7253;SDS011;4060;49.186;9.226;2023-02-18T07:34:40;3.17;;;2.97;;
7253;SDS011;4060;49.186;9.226;2023-02-18T07:37:09;3.58;;;3.28;;
7253;SDS011;4060;49.186;9.226;2023-02-18T07:39:38;2.97;;;2.78;;
7253;SDS011;4060;49.186;9.226;2023-02-18T07:42:08;3.13;;;2.83;;
7253;SDS011;4060;49.186;9.226;2023-02-18T07:44:39;2.80;;;2.60;;
7253;SDS011;4060;49.186;9.226;2023-02-18T07:47:11;3.00;;;2.80;;
7253;SDS011;4060;49.186;9.226;2023-02-18T07:49:43;2.75;;;2.55;;
7253;SDS011;4060;49.186;9.226;2023-02-18T07:52:13;3.17;;;2.90;;
7253;SDS011;4060;49.186;9.226;2023-02-18T07:54:42;3.15;;;2.85;;
7253;SDS011;4060;49.186;9.226;2023-02-18T07:57:11;2.78;;;2.58;;
7253;SDS011;4060;49.186;9.226;2023-02-18T07:59:40;2.47;;;2.30;;
7253;SDS011;4060;49.186;9.226;2023-02-18T08:02:18;3.83;;;2.40;;
7253;SDS011;4060;49.186;9.226;2023-02-18T08:04:49;3.00;;;2.53;;
7253;SDS011;4060;49.186;9.226;2023-02-18T08:07:19;2.58;;;2.17;;
7253;SDS011;4060;49.186;9.226;2023-02-18T08:09:50;2.70;;;2.50;;
7253;SDS011;4060;49.186;9.226;2023-02-18T08:12:19;2.53;;;2.33;;
7253;SDS011;4060;49.186;9.226;2023-02-18T08:14:48;2.60;;;2.40;;
7253;SDS011;4060;49.186;9.226;2023-02-18T08:17:20;2.60;;;2.30;;
7253;SDS011;4060;49.186;9.226;2023-02-18T08:19:49;2.40;;;2.20;;
7253;SDS011;4060;49.186;9.226;2023-02-18T08:22:18;2.45;;;2.25;;
7253;SDS011;4060;49.186;9.226;2023-02-18T08:24:47;2.95;;;2.75;;
7253;SDS011;4060;49.186;9.226;2023-02-18T08:27:17;3.28;;;2.60;;
7253;SDS011;4060;49.186;9.226;2023-02-18T08:29:46;2.55;;;2.33;;
7253;SDS011;4060;49.186;9.226;2023-02-18T08:32:15;2.00;;;1.90;;
7253;SDS011;4060;49.186;9.226;2023-02-18T08:34:47;2.25;;;2.05;;
7253;SDS011;4060;49.186;9.226;2023-02-18T08:37:16;2.70;;;2.50;;
7253;SDS011;4060;49.186;9.226;2023-02-18T08:39:45;3.00;;;2.20;;
7253;SDS011;4060;49.186;9.226;2023-02-18T08:42:14;2.50;;;2.30;;
7253;SDS011;4060;49.186;9.226;2023-02-18T08:44:44;2.80;;;2.60;;
7253;SDS011;4060;49.186;9.226;2023-02-18T08:47:13;2.58;;;2.38;;
7253;SDS011;4060;49.186;9.226;2023-02-18T08:49:43;3.58;;;2.90;;
7253;SDS011;4060;49.186;9.226;2023-02-18T08:52:14;3.22;;;2.63;;
7253;SDS011;4060;49.186;9.226;2023-02-18T08:54:44;2.50;;;2.30;;
7253;SDS011;4060;49.186;9.226;2023-02-18T08:57:13;3.33;;;3.03;;
7253;SDS011;4060;49.186;9.226;2023-02-18T08:59:45;2.80;;;2.60;;
7253;SDS011;4060;49.186;9.226;2023-02-18T09:02:15;3.38;;;2.65;;
7253;SDS011;4060;49.186;9.226;2023-02-18T09:04:45;2.72;;;2.53;;
7253;SDS011;4060;49.186;9.226;2023-02-18T09:07:16;3.13;;;2.78;;
7253;SDS011;4060;49.186;9.226;2023-02-18T09:09:46;3.28;;;2.58;;
7253;SDS011;4060;49.186;9.226;2023-02-18T09:12:15;2.97;;;2.67;;
7253;SDS011;4060;49.186;9.226;2023-02-18T09:14:46;2.88;;;2.67;;
7253;SDS011;4060;49.186;9.226;2023-02-18T09:17:15;3.47;;;3.05;;
7253;SDS011;4060;49.186;9.226;2023-02-18T09:19:45;2.80;;;2.45;;
7253;SDS011;4060;49.186;9.226;2023-02-18T09:22:16;2.95;;;2.50;;
7253;SDS011;4060;49.186;9.226;2023-02-18T09:24:45;3.63;;;2.60;;
7253;SDS011;4060;49.186;9.226;2023-02-18T09:27:15;3.30;;;3.00;;
7253;SDS011;4060;49.186;9.226;2023-02-18T09:29:44;4.00;;;2.67;;
7253;SDS011;4060;49.186;9.226;2023-02-18T09:32:14;2.92;;;2.15;;
7253;SDS011;4060;49.186;9.226;2023-02-18T09:34:44;3.08;;;2.88;;
7253;SDS011;4060;49.186;9.226;2023-02-18T09:37:13;3.97;;;3.05;;
7253;SDS011;4060;49.186;9.226;2023-02-18T09:39:45;2.67;;;2.47;;
7253;SDS011;4060;49.186;9.226;2023-02-18T09:42:16;2.60;;;2.40;;
7253;SDS011;4060;49.186;9.226;2023-02-18T09:44:50;2.97;;;2.75;;
7253;SDS011;4060;49.186;9.226;2023-02-18T09:47:30;2.58;;;2.38;;
7253;SDS011;4060;49.186;9.226;2023-02-18T09:50:04;2.92;;;2.72;;
7253;SDS011;4060;49.186;9.226;2023-02-18T09:52:42;3.60;;;2.70;;
7253;SDS011;4060;49.186;9.226;2023-02-18T09:55:16;2.40;;;2.20;;
7253;SDS011;4060;49.186;9.226;2023-02-18T09:57:48;3.45;;;2.88;;
7253;SDS011;4060;49.186;9.226;2023-02-18T10:00:20;2.40;;;2.20;;
7253;SDS011;4060;49.186;9.226;2023-02-18T10:02:54;2.78;;;2.00;;
7253;SDS011;4060;49.186;9.226;2023-02-18T10:05:41;2.05;;;1.85;;
7253;SDS011;4060;49.186;9.226;2023-02-18T10:08:23;2.13;;;2.03;;
7253;SDS011;4060;49.186;9.226;2023-02-18T10:11:01;1.95;;;1.80;;
7253;SDS011;4060;49.186;9.226;2023-02-18T10:13:31;2.25;;;2.05;;
7253;SDS011;4060;49.186;9.226;2023-02-18T10:16:02;2.30;;;2.10;;
7253;SDS011;4060;49.186;9.226;2023-02-18T10:18:33;2.15;;;2.05;;
7253;SDS011;4060;49.186;9.226;2023-02-18T10:21:10;2.40;;;2.20;;
7253;SDS011;4060;49.186;9.226;2023-02-18T10:23:46;2.60;;;2.13;;
7253;SDS011;4060;49.186;9.226;2023-02-18T10:26:21;2.55;;;2.05;;
7253;SDS011;4060;49.186;9.226;2023-02-18T10:28:51;2.75;;;1.92;;
7253;SDS011;4060;49.186;9.226;2023-02-18T10:31:21;2.78;;;1.85;;
7253;SDS011;4060;49.186;9.226;2023-02-18T10:33:58;1.85;;;1.73;;
7253;SDS011;4060;49.186;9.226;2023-02-18T10:36:34;2.60;;;2.40;;
7253;SDS011;4060;49.186;9.226;2023-02-18T10:39:21;2.35;;;2.10;;
7253;SDS011;4060;49.186;9.226;2023-02-18T10:42:06;2.25;;;2.10;;
7253;SDS011;4060;49.186;9.226;2023-02-18T10:44:51;2.00;;;1.90;;
7253;SDS011;4060;49.186;9.226;2023-02-18T10:47:29;2.38;;;2.17;;
7253;SDS011;4060;49.186;9.226;2023-02-18T10:50:08;2.10;;;1.90;;
7253;SDS011;4060;49.186;9.226;2023-02-18T10:52:40;2.20;;;2.00;;
7253;SDS011;4060;49.186;9.226;2023-02-18T10:55:13;2.45;;;2.22;;
7253;SDS011;4060;49.186;9.226;2023-02-18T10:57:44;2.25;;;2.05;;
7253;SDS011;4060;49.186;9.226;2023-02-18T11:00:17;2.35;;;2.15;;
7253;SDS011;4060;49.186;9.226;2023-02-18T11:03:00;2.30;;;2.10;;
7253;SDS011;4060;49.186;9.226;2023-02-18T11:05:49;2.47;;;2.22;;
7253;SDS011;4060;49.186;9.226;2023-02-18T11:08:23;3.30;;;3.03;;
7253;SDS011;4060;49.186;9.226;2023-02-18T11:10:55;2.55;;;2.33;;
7253;SDS011;4060;49.186;9.226;2023-02-18T11:13:25;4.20;;;2.60;;
7253;SDS011;4060;49.186;9.226;2023-02-18T11:15:58;3.58;;;2.40;;
7253;SDS011;4060;49.186;9.226;2023-02-18T11:18:32;3.15;;;2.85;;
7253;SDS011;4060;49.186;9.226;2023-02-18T11:21:20;3.00;;;2.72;;
7253;SDS011;4060;49.186;9.226;2023-02-18T11:23:54;2.35;;;2.15;;
7253;SDS011;4060;49.186;9.226;2023-02-18T11:26:27;2.75;;;2.55;;
7253;SDS011;4060;49.186;9.226;2023-02-18T11:29:00;2.72;;;2.17;;
7253;SDS011;4060;49.186;9.226;2023-02-18T11:31:38;2.97;;;2.30;;
7253;SDS011;4060;49.186;9.226;2023-02-18T11:34:13;2.28;;;2.08;;
7253;SDS011;4060;49.186;9.226;2023-02-18T11:36:45;2.63;;;2.42;;
7253;SDS011;4060;49.186;9.226;2023-02-18T11:39:19;2.30;;;2.10;;
7253;SDS011;4060;49.186;9.226;2023-02-18T11:41:55;3.25;;;1.88;;
7253;SDS011;4060;49.186;9.226;2023-02-18T11:44:27;2.20;;;2.00;;
7253;SDS011;4060;49.186;9.226;2023-02-18T11:47:01;1.90;;;1.80;;
7253;SDS011;4060;49.186;9.226;2023-02-18T11:49:32;1.73;;;1.63;;
7253;SDS011;4060;49.186;9.226;2023-02-18T11:52:03;1.85;;;1.70;;
7253;SDS011;4060;49.186;9.226;2023-02-18T11:54:57;2.42;;;2.00;;
7253;SDS011;4060;49.186;9.226;2023-02-18T11:57:30;3.13;;;1.98;;
7253;SDS011;4060;49.186;9.226;2023-02-18T12:00:05;1.92;;;1.83;;
7253;SDS011;4060;49.186;9.226;2023-02-18T12:02:49;2.22;;;1.55;;
7253;SDS011;4060;49.186;9.226;2023-02-18T12:05:21;2.28;;;2.03;;
7253;SDS011;4060;49.186;9.226;2023-02-18T12:07:54;1.95;;;1.85;;
7253;SDS011;4060;49.186;9.226;2023-02-18T12:10:28;1.98;;;1.88;;
7253;SDS011;4060;49.186;9.226;2023-02-18T12:13:02;2.03;;;1.83;;
7253;SDS011;4060;49.186;9.226;2023-02-18T12:15:39;2.50;;;2.30;;
7253;SDS011;4060;49.186;9.226;2023-02-18T12:18:22;1.92;;;1.63;;
7253;SDS011;4060;49.186;9.226;2023-02-18T12:21:16;1.90;;;1.63;;
7253;SDS011;4060;49.186;9.226;2023-02-18T12:24:05;2.40;;;1.75;;
7253;SDS011;4060;49.186;9.226;2023-02-18T12:26:52;1.70;;;1.60;;
7253;SDS011;4060;49.186;9.226;2023-02-18T12:29:35;2.22;;;2.03;;
7253;SDS011;4060;49.186;9.226;2023-02-18T12:32:22;3.08;;;2.20;;
7253;SDS011;4060;49.186;9.226;2023-02-18T12:35:10;2.10;;;1.63;;
7253;SDS011;4060;49.186;9.226;2023-02-18T12:38:03;2.28;;;2.08;;
7253;SDS011;4060;49.186;9.226;2023-02-18T12:40:47;2.10;;;1.98;;
7253;SDS011;4060;49.186;9.226;2023-02-18T12:43:28;1.80;;;1.70;;
7253;SDS011;4060;49.186;9.226;2023-02-18T12:46:26;2.67;;;2.10;;
7253;SDS011;4060;49.186;9.226;2023-02-18T12:49:14;2.20;;;1.92;;
7253;SDS011;4060;49.186;9.226;2023-02-18T12:52:13;2.60;;;1.88;;
7253;SDS011;4060;49.186;9.226;2023-02-18T12:54:57;2.05;;;1.85;;
7253;SDS011;4060;49.186;9.226;2023-02-18T12:57:51;2.03;;;1.83;;
7253;SDS011;4060;49.186;9.226;2023-02-18T13:06:51;1.65;;;1.55;;
7253;SDS011;4060;49.186;9.226;2023-02-18T13:09:45;1.52;;;1.42;;
7253;SDS011;4060;49.186;9.226;2023-02-18T13:12:23;1.73;;;1.60;;
7253;SDS011;4060;49.186;9.226;2023-02-18T13:15:00;1.67;;;1.58;;
7253;SDS011;4060;49.186;9.226;2023-02-18T13:17:34;2.05;;;1.80;;
7253;SDS011;4060;49.186;9.226;2023-02-18T13:20:08;2.30;;;2.13;;
7253;SDS011;4060;49.186;9.226;2023-02-18T13:22:49;1.67;;;1.58;;
7253;SDS011;4060;49.186;9.226;2023-02-18T13:25:19;1.75;;;1.65;;
7253;SDS011;4060;49.186;9.226;2023-02-18T13:27:52;2.15;;;2.05;;
7253;SDS011;4060;49.186;9.226;2023-02-18T13:30:37;2.55;;;1.90;;
7253;SDS011;4060;49.186;9.226;2023-02-18T13:33:13;2.33;;;1.98;;
7253;SDS011;4060;49.186;9.226;2023-02-18T13:35:53;1.83;;;1.73;;
7253;SDS011;4060;49.186;9.226;2023-02-18T13:41:25;2.03;;;1.90;;
7253;SDS011;4060;49.186;9.226;2023-02-18T13:43:55;2.08;;;1.98;;
7253;SDS011;4060;49.186;9.226;2023-02-18T13:46:24;2.30;;;2.10;;
7253;SDS011;4060;49.186;9.226;2023-02-18T13:48:53;1.55;;;1.45;;
7253;SDS011;4060;49.186;9.226;2023-02-18T13:51:38;1.80;;;1.70;;
7253;SDS011;4060;49.186;9.226;2023-02-18T13:54:17;2.08;;;1.88;;
7253;SDS011;4060;49.186;9.226;2023-02-18T13:56:57;1.90;;;1.80;;
7253;SDS011;4060;49.186;9.226;2023-02-18T13:59:30;1.80;;;1.70;;
7253;SDS011;4060;49.186;9.226;2023-02-18T14:04:57;2.38;;;1.67;;
7253;SDS011;4060;49.186;9.226;2023-02-18T14:07:50;1.80;;;1.65;;
7253;SDS011;4060;49.186;9.226;2023-02-18T14:10:34;1.80;;;1.70;;
7253;SDS011;4060;49.186;9.226;2023-02-18T14:13:24;1.92;;;1.83;;
7253;SDS011;4060;49.186;9.226;2023-02-18T14:16:07;1.73;;;1.63;;
7253;SDS011;4060;49.186;9.226;2023-02-18T14:18:54;2.33;;;2.13;;
7253;SDS011;4060;49.186;9.226;2023-02-18T14:21:34;1.90;;;1.80;;
7253;SDS011;4060;49.186;9.226;2023-02-18T14:24:11;2.28;;;1.83;;
7253;SDS011;4060;49.186;9.226;2023-02-18T14:26:45;4.00;;;2.08;;
7253;SDS011;4060;49.186;9.226;2023-02-18T14:29:26;2.00;;;1.90;;
7253;SDS011;4060;49.186;9.226;2023-02-18T14:31:59;2.05;;;1.95;;
7253;SDS011;4060;49.186;9.226;2023-02-18T14:40:50;1.90;;;1.70;;
7253;SDS011;4060;49.186;9.226;2023-02-18T14:46:34;1.58;;;1.45;;
7253;SDS011;4060;49.186;9.226;2023-02-18T14:49:24;1.45;;;1.33;;
7253;SDS011;4060;49.186;9.226;2023-02-18T14:52:03;2.08;;;1.63;;
7253;SDS011;4060;49.186;9.226;2023-02-18T14:54:39;1.85;;;1.42;;
7253;SDS011;4060;49.186;9.226;2023-02-18T14:57:14;1.67;;;1.58;;
7253;SDS011;4060;49.186;9.226;2023-02-18T14:59:45;1.40;;;1.30;;
7253;SDS011;4060;49.186;9.226;2023-02-18T15:02:19;1.85;;;1.60;;
7253;SDS011;4060;49.186;9.226;2023-02-18T15:04:50;1.75;;;1.65;;
7253;SDS011;4060;49.186;9.226;2023-02-18T15:07:21;1.98;;;1.42;;
7253;SDS011;4060;49.186;9.226;2023-02-18T15:09:52;1.98;;;1.77;;
7253;SDS011;4060;49.186;9.226;2023-02-18T15:12:24;1.63;;;1.40;;
7253;SDS011;4060;49.186;9.226;2023-02-18T15:14:55;1.77;;;1.67;;
7253;SDS011;4060;49.186;9.226;2023-02-18T15:17:30;1.98;;;1.65;;
7253;SDS011;4060;49.186;9.226;2023-02-18T15:20:03;2.25;;;2.05;;
7253;SDS011;4060;49.186;9.226;2023-02-18T15:22:34;2.60;;;2.40;;
7253;SDS011;4060;49.186;9.226;2023-02-18T15:25:03;1.88;;;1.77;;
7253;SDS011;4060;49.186;9.226;2023-02-18T15:27:37;1.80;;;1.70;;
7253;SDS011;4060;49.186;9.226;2023-02-18T15:30:18;2.05;;;1.88;;
7253;SDS011;4060;49.186;9.226;2023-02-18T15:32:53;2.70;;;2.00;;
7253;SDS011;4060;49.186;9.226;2023-02-18T15:35:25;2.85;;;1.98;;
7253;SDS011;4060;49.186;9.226;2023-02-18T15:37:57;2.17;;;1.98;;
7253;SDS011;4060;49.186;9.226;2023-02-18T15:40:29;2.30;;;2.17;;
7253;SDS011;4060;49.186;9.226;2023-02-18T15:43:03;2.53;;;1.98;;
7253;SDS011;4060;49.186;9.226;2023-02-18T15:45:35;2.17;;;2.03;;
7253;SDS011;4060;49.186;9.226;2023-02-18T15:48:12;2.40;;;2.20;;
7253;SDS011;4060;49.186;9.226;2023-02-18T15:50:52;2.25;;;2.05;;
7253;SDS011;4060;49.186;9.226;2023-02-18T15:53:22;2.15;;;2.03;;
7253;SDS011;4060;49.186;9.226;2023-02-18T15:55:53;2.50;;;2.30;;
7253;SDS011;4060;49.186;9.226;2023-02-18T15:58:26;2.20;;;1.90;;
7253;SDS011;4060;49.186;9.226;2023-02-18T16:00:56;1.83;;;1.73;;
7253;SDS011;4060;49.186;9.226;2023-02-18T16:03:27;2.28;;;2.08;;
7253;SDS011;4060;49.186;9.226;2023-02-18T16:06:08;1.98;;;1.88;;
7253;SDS011;4060;49.186;9.226;2023-02-18T16:08:40;1.85;;;1.73;;
7253;SDS011;4060;49.186;9.226;2023-02-18T16:11:14;1.98;;;1.88;;
7253;SDS011;4060;49.186;9.226;2023-02-18T16:13:45;1.75;;;1.65;;
7253;SDS011;4060;49.186;9.226;2023-02-18T16:16:19;2.25;;;2.00;;
7253;SDS011;4060;49.186;9.226;2023-02-18T16:18:55;2.33;;;2.13;;
7253;SDS011;4060;49.186;9.226;2023-02-18T16:21:28;2.35;;;2.20;;
7253;SDS011;4060;49.186;9.226;2023-02-18T16:24:00;2.42;;;2.22;;